createdAt,value
2018-02-01T06:40:28.215Z,0
2018-02-01T06:41:37.951Z,0
2018-02-01T06:42:46.941Z,0
2018-02-01T06:43:56.186Z,0
2018-02-01T06:45:05.125Z,0
2018-02-01T06:46:14.336Z,0
2018-02-01T06:47:23.059Z,0
2018-02-01T06:48:32.034Z,0
2018-02-01T06:49:41.115Z,0
2018-02-01T06:50:49.822Z,0
2018-02-01T06:51:58.782Z,0
2018-02-01T06:53:07.741Z,0
2018-02-01T06:54:16.460Z,0
2018-02-01T06:55:25.978Z,0
2018-02-01T06:56:34.923Z,0
2018-02-01T06:57:43.892Z,0
2018-02-01T06:58:53.114Z,0
2018-02-01T07:00:02.342Z,0
2018-02-01T07:01:11.534Z,0
2018-02-01T07:02:20.529Z,0
2018-02-01T07:03:29.763Z,0
2018-02-01T07:04:39.232Z,0
2018-02-01T07:05:48.228Z,0
2018-02-01T07:06:57.687Z,0
2018-02-01T07:08:06.902Z,0
2018-02-01T07:09:15.602Z,0
2018-02-01T07:10:24.872Z,0
2018-02-01T07:11:33.654Z,0
2018-02-01T07:12:42.873Z,0
2018-02-01T07:13:52.115Z,0
2018-02-01T07:15:01.081Z,0
2018-02-01T07:16:10.359Z,0
2018-02-01T07:17:19.565Z,0
2018-02-01T07:18:28.789Z,0
2018-02-01T07:19:37.998Z,0
2018-02-01T07:20:46.684Z,0
2018-02-01T07:21:55.942Z,0
2018-02-01T07:23:04.912Z,0
2018-02-01T07:24:13.869Z,0
2018-02-01T07:25:22.826Z,0
2018-02-01T07:26:31.506Z,0
2018-02-01T07:27:41.002Z,0
2018-02-01T07:28:49.964Z,0
2018-02-01T07:29:59.183Z,0
2018-02-01T07:31:07.890Z,0
2018-02-01T07:32:16.838Z,5
2018-02-01T07:33:25.535Z,5
2018-02-01T07:34:35.013Z,5
2018-02-01T07:35:44.527Z,5
2018-02-01T07:36:53.790Z,5
2018-02-01T07:38:02.759Z,5
2018-02-01T07:39:11.983Z,5
2018-02-01T07:40:21.239Z,5
2018-02-01T07:41:30.210Z,5
2018-02-01T07:42:39.435Z,5
2018-02-01T07:43:48.406Z,5
2018-02-01T07:44:57.652Z,5
2018-02-01T07:46:06.357Z,5
2018-02-01T07:47:15.589Z,5
2018-02-01T07:48:24.293Z,5
2018-02-01T07:49:33.248Z,5
2018-02-01T07:50:42.470Z,5
2018-02-01T07:51:51.450Z,5
2018-02-01T07:53:00.411Z,5
2018-02-01T07:54:09.122Z,5
2018-02-01T07:55:18.592Z,5
2018-02-01T07:56:27.842Z,5
2018-02-01T07:57:37.057Z,5
2018-02-01T07:58:46.043Z,10
2018-02-01T07:59:54.986Z,10
2018-02-01T08:01:03.705Z,10
2018-02-01T08:02:13.176Z,10
2018-02-01T08:03:22.125Z,10
2018-02-01T08:04:31.385Z,10
2018-02-01T08:05:40.409Z,15
2018-02-01T08:06:49.166Z,10
2018-02-01T08:07:58.405Z,15
2018-02-01T08:09:07.104Z,15
2018-02-01T08:10:16.080Z,15
2018-02-01T08:11:24.779Z,15
2018-02-01T08:12:34.005Z,15
2018-02-01T08:13:42.964Z,15
2018-02-01T08:14:51.670Z,20
2018-02-01T08:16:00.640Z,15
2018-02-01T08:17:09.323Z,15
2018-02-01T08:18:18.012Z,15
2018-02-01T08:19:26.994Z,15
2018-02-01T08:20:36.511Z,15
2018-02-01T08:21:45.545Z,15
2018-02-01T08:22:55.036Z,15
2018-02-01T08:24:04.000Z,15
2018-02-01T08:25:12.985Z,10
2018-02-01T08:26:21.958Z,10
2018-02-01T08:27:31.469Z,15
2018-02-01T08:28:40.444Z,15
2018-02-01T08:29:49.163Z,15
2018-02-01T08:30:58.398Z,10
2018-02-01T08:32:07.132Z,10
2018-02-01T08:33:16.096Z,15
2018-02-01T08:34:25.054Z,15
2018-02-01T08:35:34.000Z,20
2018-02-01T08:36:42.997Z,15
2018-02-01T08:37:52.736Z,15
2018-02-01T08:39:01.957Z,20
2018-02-01T08:40:11.161Z,20
2018-02-01T08:41:20.910Z,15
2018-02-01T08:42:29.895Z,15
2018-02-01T08:43:38.640Z,15
2018-02-01T08:44:47.645Z,15
2018-02-01T08:45:56.347Z,15
2018-02-01T08:47:05.331Z,15
2018-02-01T08:48:14.307Z,15
2018-02-01T08:49:23.793Z,15
2018-02-01T08:50:32.997Z,15
2018-02-01T08:51:42.203Z,15
2018-02-01T08:52:51.148Z,15
2018-02-01T08:54:00.875Z,15
2018-02-01T08:55:09.824Z,15
2018-02-01T08:56:18.582Z,15
2018-02-01T08:57:28.088Z,15
2018-02-01T08:58:36.773Z,15
2018-02-01T08:59:45.460Z,15
2018-02-01T09:00:54.197Z,15
2018-02-01T09:02:02.907Z,15
2018-02-01T09:03:11.621Z,15
2018-02-01T09:04:20.609Z,15
2018-02-01T09:05:30.107Z,15
2018-02-01T09:06:39.656Z,15
2018-02-01T09:07:49.125Z,15
2018-02-01T09:08:58.145Z,15
2018-02-01T09:10:07.384Z,15
2018-02-01T09:11:16.073Z,15
2018-02-01T09:12:24.760Z,15
2018-02-01T09:13:33.753Z,15
2018-02-01T09:14:42.725Z,15
2018-02-01T09:15:51.930Z,15
2018-02-01T09:17:00.911Z,20
2018-02-01T09:18:10.138Z,20
2018-02-01T09:19:19.351Z,20
2018-02-01T09:20:28.340Z,20
2018-02-01T09:21:37.566Z,20
2018-02-01T09:22:46.289Z,20
2018-02-01T09:23:55.279Z,20
2018-02-01T09:25:04.521Z,20
2018-02-01T09:26:13.507Z,20
2018-02-01T09:27:23.022Z,20
2018-02-01T09:28:31.734Z,20
2018-02-01T09:29:40.487Z,20
2018-02-01T09:30:49.405Z,20
2018-02-01T09:31:58.346Z,25
2018-02-01T09:33:07.566Z,20
2018-02-01T09:34:16.541Z,20
2018-02-01T09:35:25.502Z,15
2018-02-01T09:36:34.493Z,15
2018-02-01T09:37:43.721Z,20
2018-02-01T09:38:52.703Z,15
2018-02-01T09:40:01.403Z,15
2018-02-01T09:41:10.904Z,15
2018-02-01T09:42:20.153Z,15
2018-02-01T09:43:28.864Z,15
2018-02-01T09:44:38.341Z,15
2018-02-01T09:45:47.315Z,15
2018-02-01T09:46:56.277Z,20
2018-02-01T09:48:05.483Z,20
2018-02-01T09:49:14.470Z,20
2018-02-01T09:50:23.181Z,20
2018-02-01T09:51:32.184Z,20
2018-02-01T09:52:40.902Z,20
2018-02-01T09:53:49.894Z,20
2018-02-01T09:54:58.848Z,25
2018-02-01T09:56:07.548Z,30
2018-02-01T09:57:16.531Z,30
2018-02-01T09:58:25.251Z,30
2018-02-01T09:59:34.750Z,30
2018-02-01T10:00:43.719Z,30
2018-02-01T10:01:52.933Z,30
2018-02-01T10:03:01.912Z,30
2018-02-01T10:04:10.867Z,30
2018-02-01T10:05:20.075Z,30
2018-02-01T10:06:29.297Z,25
2018-02-01T10:07:38.520Z,25
2018-02-01T10:08:47.485Z,25
2018-02-01T10:09:56.477Z,25
2018-02-01T10:11:05.504Z,25
2018-02-01T10:12:14.214Z,25
2018-02-01T10:13:23.227Z,25
2018-02-01T10:14:32.469Z,25
2018-02-01T10:15:41.707Z,25
2018-02-01T10:16:50.664Z,25
2018-02-01T10:18:00.146Z,25
2018-02-01T10:19:09.347Z,25
2018-02-01T10:20:18.291Z,25
2018-02-01T10:21:26.994Z,25
2018-02-01T10:22:35.958Z,25
2018-02-01T10:23:44.917Z,25
2018-02-01T10:24:53.882Z,30
2018-02-01T10:26:03.349Z,30
2018-02-01T10:27:12.842Z,30
2018-02-01T10:28:21.788Z,30
2018-02-01T10:29:30.475Z,30
2018-02-01T10:30:39.943Z,30
2018-02-01T10:31:48.664Z,30
2018-02-01T10:32:57.662Z,30
2018-02-01T10:34:06.728Z,30
2018-02-01T10:35:15.708Z,35
2018-02-01T10:36:25.210Z,30
2018-02-01T10:37:33.916Z,30
2018-02-01T10:38:43.154Z,30
2018-02-01T10:39:52.164Z,30
2018-02-01T10:41:01.394Z,25
2018-02-01T10:42:10.105Z,25
2018-02-01T10:43:19.079Z,25
2018-02-01T10:44:28.053Z,25
2018-02-01T10:45:37.296Z,25
2018-02-01T10:46:46.247Z,25
2018-02-01T10:47:56.037Z,30
2018-02-01T10:49:05.249Z,25
2018-02-01T10:50:14.466Z,20
2018-02-01T10:51:23.982Z,20
2018-02-01T10:52:33.271Z,25
2018-02-01T10:53:42.241Z,20
2018-02-01T10:54:51.248Z,25
2018-02-01T10:56:00.491Z,25
2018-02-01T10:57:09.974Z,20
2018-02-01T10:58:18.932Z,15
2018-02-01T10:59:28.209Z,20
2018-02-01T11:00:37.721Z,20
2018-02-01T11:01:46.945Z,20
2018-02-01T11:02:55.937Z,20
2018-02-01T11:04:05.717Z,15
2018-02-01T11:05:15.227Z,15
2018-02-01T11:06:24.492Z,15
2018-02-01T11:07:33.733Z,15
2018-02-01T11:08:43.307Z,15
2018-02-01T11:09:52.530Z,20
2018-02-01T11:11:01.226Z,20
2018-02-01T11:12:10.765Z,20
2018-02-01T11:13:19.501Z,25
2018-02-01T11:14:28.749Z,20
2018-02-01T11:15:37.718Z,25
2018-02-01T11:16:46.433Z,20
2018-02-01T11:17:55.397Z,25
2018-02-01T11:19:04.113Z,25
2018-02-01T11:20:13.345Z,25
2018-02-01T11:21:22.571Z,30
2018-02-01T11:22:31.534Z,35
2018-02-01T11:23:40.482Z,35
2018-02-01T11:24:49.452Z,30
2018-02-01T11:25:58.439Z,30
2018-02-01T11:27:07.149Z,30
2018-02-01T11:28:16.641Z,35
2018-02-01T11:29:25.616Z,35
2018-02-01T11:30:34.603Z,35
2018-02-01T11:31:43.562Z,30
2018-02-01T11:32:52.527Z,25
2018-02-01T11:34:01.236Z,25
2018-02-01T11:35:09.922Z,25
2018-02-01T11:36:18.957Z,30
2018-02-01T11:37:27.918Z,30
2018-02-01T11:38:36.896Z,35
2018-02-01T11:39:45.865Z,35
2018-02-01T11:40:54.838Z,35
2018-02-01T11:42:03.558Z,30
2018-02-01T11:43:12.524Z,35
2018-02-01T11:44:21.749Z,30
2018-02-01T11:45:31.257Z,25
2018-02-01T11:46:40.502Z,25
2018-02-01T11:47:49.486Z,20
2018-02-01T11:48:58.694Z,15
2018-02-01T11:50:07.660Z,25
2018-02-01T11:51:16.635Z,20
2018-02-01T11:52:25.864Z,25
2018-02-01T11:53:34.842Z,25
2018-02-01T11:54:43.828Z,30
2018-02-01T11:55:52.824Z,20
2018-02-01T11:57:01.563Z,15
2018-02-01T11:58:10.797Z,15
2018-02-01T11:59:19.744Z,15
2018-02-01T12:00:28.966Z,20
2018-02-01T12:01:37.956Z,25
2018-02-01T12:02:47.206Z,25
2018-02-01T12:03:56.725Z,30
2018-02-01T12:05:05.445Z,25
2018-02-01T12:06:14.725Z,30
2018-02-01T12:07:23.479Z,20
2018-02-01T12:08:32.442Z,20
2018-02-01T12:09:41.670Z,20
2018-02-01T12:10:50.620Z,20
2018-02-01T12:11:59.327Z,15
2018-02-01T12:13:08.078Z,20
2018-02-01T12:14:16.780Z,20
2018-02-01T12:15:26.269Z,20
2018-02-01T12:16:34.970Z,15
2018-02-01T12:17:44.493Z,15
2018-02-01T12:18:53.475Z,15
2018-02-01T12:20:02.693Z,10
2018-02-01T12:21:11.659Z,10
2018-02-01T12:22:21.142Z,10
2018-02-01T12:23:30.117Z,10
2018-02-01T12:24:38.831Z,15
2018-02-01T12:25:47.818Z,10
2018-02-01T12:26:57.052Z,10
2018-02-01T12:28:06.797Z,10
2018-02-01T12:29:15.512Z,10
2018-02-01T12:30:24.491Z,10
2018-02-01T12:31:33.715Z,10
2018-02-01T12:32:42.970Z,10
2018-02-01T12:33:52.291Z,10
2018-02-01T12:35:01.553Z,10
2018-02-01T12:36:10.524Z,15
2018-02-01T12:37:19.473Z,15
2018-02-01T12:38:28.167Z,15
2018-02-01T12:39:37.140Z,15
2018-02-01T12:40:45.880Z,20
2018-02-01T12:41:54.845Z,15
2018-02-01T12:43:04.066Z,15
2018-02-01T12:44:13.048Z,15
2018-02-01T12:45:22.586Z,15
2018-02-01T12:46:32.113Z,15
2018-02-01T12:47:40.868Z,15
2018-02-01T12:48:49.847Z,15
2018-02-01T12:49:58.817Z,15
2018-02-01T12:51:07.770Z,10
2018-02-01T12:52:16.970Z,15
2018-02-01T12:53:26.188Z,15
2018-02-01T12:54:35.167Z,15
2018-02-01T12:55:44.389Z,15
2018-02-01T12:56:53.090Z,20
2018-02-01T12:58:02.050Z,25
2018-02-01T12:59:11.023Z,20
2018-02-01T13:00:19.705Z,15
2018-02-01T13:01:28.685Z,15
2018-02-01T13:02:37.914Z,15
2018-02-01T13:03:46.644Z,15
2018-02-01T13:04:55.606Z,10
2018-02-01T13:06:04.608Z,15
2018-02-01T13:07:13.594Z,15
2018-02-01T13:08:23.086Z,10
2018-02-01T13:09:32.127Z,10
2018-02-01T13:10:41.364Z,10
2018-02-01T13:11:50.340Z,5
2018-02-01T13:12:59.315Z,5
2018-02-01T13:14:08.295Z,10
2018-02-01T13:15:16.991Z,10
2018-02-01T13:16:26.231Z,10
2018-02-01T13:17:34.929Z,10
2018-02-01T13:18:43.882Z,15
2018-02-01T13:19:53.109Z,15
2018-02-01T13:21:02.649Z,15
2018-02-01T13:22:11.360Z,15
2018-02-01T13:23:20.840Z,20
2018-02-01T13:24:30.394Z,20
2018-02-01T13:25:39.649Z,15
2018-02-01T13:26:48.645Z,15
2018-02-01T13:27:57.385Z,25
2018-02-01T13:29:06.368Z,25
2018-02-01T13:30:15.086Z,20
2018-02-01T13:31:24.836Z,20
2018-02-01T13:32:33.811Z,20
2018-02-01T13:33:42.825Z,20
2018-02-01T13:34:51.802Z,15
2018-02-01T13:36:00.768Z,10
2018-02-01T13:37:10.546Z,10
2018-02-01T13:38:20.071Z,15
2018-02-01T13:39:29.053Z,15
2018-02-01T13:40:38.566Z,10
2018-02-01T13:41:47.300Z,5
2018-02-01T13:42:56.279Z,10
2018-02-01T13:44:05.583Z,10
2018-02-01T13:45:14.331Z,10
2018-02-01T13:46:23.040Z,10
2018-02-01T13:47:32.039Z,10
2018-02-01T13:48:41.541Z,10
2018-02-01T13:49:50.837Z,5
2018-02-01T13:50:59.829Z,5
2018-02-01T13:52:08.792Z,5
2018-02-01T13:53:17.744Z,5
2018-02-01T13:54:26.461Z,10
2018-02-01T13:55:35.981Z,10
2018-02-01T13:56:45.126Z,10
2018-02-01T13:57:54.351Z,10
2018-02-01T13:59:03.068Z,10
2018-02-01T14:00:12.358Z,10
2018-02-01T14:01:21.335Z,10
2018-02-01T14:02:30.581Z,5
2018-02-01T14:03:39.553Z,5
2018-02-01T14:04:48.765Z,5
2018-02-01T14:05:57.719Z,5
2018-02-01T14:07:06.683Z,5
2018-02-01T14:08:15.669Z,5
2018-02-01T14:09:24.661Z,5
2018-02-01T14:10:33.883Z,10
2018-02-01T14:11:42.852Z,5
2018-02-01T14:12:51.802Z,5
2018-02-01T14:14:01.050Z,10
2018-02-01T14:15:10.010Z,5
2018-02-01T14:16:19.530Z,5
2018-02-01T14:17:28.238Z,5
2018-02-01T14:18:37.205Z,5
2018-02-01T14:19:45.905Z,5
2018-02-01T14:20:54.861Z,5
2018-02-01T14:22:03.544Z,5
2018-02-01T14:23:12.512Z,5
2018-02-01T14:24:21.767Z,10
2018-02-01T14:25:30.732Z,10
2018-02-01T14:26:40.483Z,10
2018-02-01T14:27:49.444Z,15
2018-02-01T14:28:58.157Z,15
2018-02-01T14:30:07.736Z,15
2018-02-01T14:31:17.215Z,15
2018-02-01T14:32:26.160Z,10
2018-02-01T14:33:35.393Z,10
2018-02-01T14:34:44.348Z,10
2018-02-01T14:35:53.582Z,10
2018-02-01T14:37:02.824Z,10
2018-02-01T14:38:12.038Z,5
2018-02-01T14:39:21.250Z,10
2018-02-01T14:40:30.203Z,10
2018-02-01T14:41:38.917Z,10
2018-02-01T14:42:48.646Z,10
2018-02-01T14:43:57.591Z,10
2018-02-01T14:45:06.552Z,10
2018-02-01T14:46:15.769Z,5
2018-02-01T14:47:24.786Z,5
2018-02-01T14:48:33.474Z,5
2018-02-01T14:49:42.181Z,5
2018-02-01T14:50:51.204Z,5
2018-02-01T14:52:00.978Z,5
2018-02-01T14:53:10.475Z,5
2018-02-01T14:54:19.463Z,5
2018-02-01T14:55:28.700Z,5
2018-02-01T14:56:37.440Z,10
2018-02-01T14:57:46.146Z,5
2018-02-01T14:58:55.139Z,5
2018-02-01T15:00:04.452Z,5
2018-02-01T15:01:13.415Z,5
2018-02-01T15:02:22.945Z,5
2018-02-01T15:03:31.641Z,5
2018-02-01T15:04:40.606Z,5
2018-02-01T15:05:49.830Z,10
2018-02-01T15:06:58.795Z,10
2018-02-01T15:08:07.777Z,10
2018-02-01T15:09:16.728Z,15
2018-02-01T15:10:25.693Z,10
2018-02-01T15:11:34.932Z,10
2018-02-01T15:12:44.427Z,5
2018-02-01T15:13:54.454Z,5
2018-02-01T15:15:03.453Z,5
2018-02-01T15:16:13.269Z,5
2018-02-01T15:17:21.969Z,5
2018-02-01T15:18:31.200Z,5
2018-02-01T15:19:40.143Z,5
2018-02-01T15:20:48.857Z,5
2018-02-01T15:21:57.834Z,5
2018-02-01T15:23:07.320Z,5
2018-02-01T15:24:16.563Z,10
2018-02-01T15:25:25.769Z,10
2018-02-01T15:26:34.772Z,10
2018-02-01T15:27:44.072Z,15
2018-02-01T15:28:52.764Z,10
2018-02-01T15:30:01.455Z,10
2018-02-01T15:31:10.151Z,5
2018-02-01T15:32:19.125Z,0
2018-02-01T15:33:28.582Z,0
2018-02-01T15:34:37.283Z,0
2018-02-01T15:35:45.990Z,5
2018-02-01T15:36:55.209Z,5
2018-02-01T15:38:04.988Z,5
2018-02-01T15:39:14.045Z,5
2018-02-01T15:40:22.753Z,5
2018-02-01T15:41:31.981Z,5
2018-02-01T15:42:40.955Z,0
2018-02-01T15:43:50.023Z,0
2018-02-01T15:44:58.985Z,0
2018-02-01T15:46:08.011Z,0
2018-02-01T15:47:16.666Z,0
2018-02-01T15:48:25.881Z,0
2018-02-01T15:49:34.840Z,0
2018-02-01T15:50:44.325Z,0
2018-02-01T15:51:53.273Z,0
2018-02-01T15:53:02.242Z,0
2018-02-01T15:54:12.102Z,0
2018-02-01T15:55:21.059Z,0
2018-02-01T15:56:30.012Z,0
2018-02-01T15:57:38.972Z,0
2018-02-01T15:58:47.968Z,0
2018-02-01T15:59:56.680Z,0
2018-02-01T16:01:05.634Z,0
2018-02-01T16:02:14.878Z,0
2018-02-01T16:03:23.836Z,0
2018-02-01T16:04:33.099Z,0
2018-02-01T16:05:41.817Z,0
2018-02-01T16:06:51.038Z,0
2018-02-01T16:08:00.027Z,0
2018-02-01T16:09:09.013Z,0
2018-02-01T16:10:17.997Z,0
2018-02-01T16:11:26.962Z,0
2018-02-01T16:12:35.909Z,0
2018-02-01T16:13:44.627Z,0
2018-02-01T16:14:53.853Z,0
2018-02-01T16:16:02.568Z,0
2018-02-01T16:17:12.059Z,0
2018-02-01T16:18:21.291Z,0
2018-02-01T16:19:30.294Z,0
2018-02-01T16:20:39.271Z,0
2018-02-01T16:21:48.249Z,0
2018-02-01T16:22:57.213Z,0
2018-02-01T16:24:06.472Z,0
2018-02-01T16:25:15.428Z,0
2018-02-01T16:26:24.905Z,0
2018-02-01T16:27:33.859Z,0
2018-02-01T16:28:42.826Z,0
2018-02-01T16:29:52.062Z,0
2018-02-01T16:31:01.282Z,0
2018-02-01T16:32:10.238Z,0
2018-02-01T16:33:19.493Z,0
2018-02-01T16:34:28.471Z,0
2018-02-01T16:35:37.157Z,0
2018-02-01T16:36:46.635Z,0
2018-02-01T16:37:55.867Z,0
2018-02-01T16:39:04.551Z,0
2018-02-01T16:40:13.763Z,0
2018-02-01T16:41:23.009Z,0
2018-02-01T16:42:31.711Z,0
2018-02-01T16:43:40.982Z,0
2018-02-01T16:44:50.489Z,0
2018-02-01T16:45:59.221Z,0
2018-02-01T16:47:08.189Z,0
2018-02-01T16:48:17.658Z,0
2018-02-01T16:49:26.890Z,0
2018-02-01T16:50:35.596Z,0
2018-02-01T16:51:44.533Z,0
2018-02-01T16:52:53.495Z,0
2018-02-01T16:54:02.746Z,0
2018-02-01T16:55:11.459Z,0
2018-02-01T16:56:20.442Z,0
2018-02-01T16:57:29.423Z,0
2018-02-01T16:58:38.665Z,0
2018-02-01T16:59:47.890Z,0
2018-02-01T17:00:56.598Z,0
2018-02-01T17:02:05.594Z,0
2018-02-01T17:03:14.550Z,0
2018-02-01T17:04:23.262Z,0
2018-02-01T17:05:31.961Z,0
2018-02-01T17:06:41.528Z,0
2018-02-01T17:07:51.048Z,0
2018-02-01T17:09:00.290Z,0
2018-02-01T17:10:09.282Z,0
2018-02-01T17:11:17.968Z,0
2018-02-01T17:12:26.926Z,0
2018-02-01T17:13:35.912Z,0
2018-02-01T17:14:45.126Z,0
2018-02-01T17:15:53.855Z,0
2018-02-01T17:17:03.092Z,0
2018-02-01T17:18:12.035Z,0
2018-02-01T17:19:21.523Z,0
2018-02-01T17:20:30.225Z,0
2018-02-01T17:21:39.434Z,0
2018-02-01T17:22:48.394Z,0
2018-02-01T17:23:57.118Z,0
2018-02-01T17:25:06.064Z,0
2018-02-01T17:26:15.023Z,0
2018-02-01T17:27:24.257Z,0
2018-02-01T17:28:33.256Z,0
2018-02-01T17:29:42.468Z,0
2018-02-01T17:30:51.761Z,0
2018-02-01T17:32:00.710Z,0
2018-02-01T17:33:09.942Z,0
2018-02-01T17:34:18.624Z,0
2018-02-01T17:35:27.316Z,0
2018-02-01T17:36:36.256Z,0
2018-02-01T17:37:45.217Z,0
2018-02-01T17:38:54.972Z,0
2018-02-01T17:40:03.662Z,0
2018-02-01T17:41:12.892Z,0
2018-02-01T17:42:21.843Z,0
2018-02-01T17:43:30.788Z,0
2018-02-01T17:44:39.759Z,0
2018-02-01T17:45:48.467Z,0
2018-02-01T17:46:57.160Z,0
2018-02-01T17:48:06.423Z,0
2018-02-01T17:49:15.392Z,0
2018-02-01T17:50:24.618Z,0
2018-02-01T17:51:33.376Z,0
2018-02-01T17:52:42.065Z,0
2018-02-01T17:53:51.286Z,0
2018-02-01T17:55:00.266Z,0
2018-02-01T17:56:09.246Z,0
2018-02-01T17:57:18.239Z,0
2018-02-01T17:58:27.188Z,0
2018-02-01T17:59:36.398Z,0
2018-02-01T18:00:45.131Z,0
2018-02-01T18:01:54.104Z,0
2018-02-01T18:03:02.872Z,0
2018-02-01T18:04:11.577Z,0
2018-02-01T18:05:20.263Z,0
2018-02-01T18:06:29.460Z,0
2018-02-01T18:07:38.510Z,0
2018-02-01T18:08:47.737Z,0
2018-02-01T18:09:56.722Z,0
2018-02-01T18:11:05.712Z,0
2018-02-01T18:12:15.256Z,0
2018-02-01T18:13:23.986Z,0
2018-02-01T18:14:33.204Z,0
2018-02-01T18:15:42.145Z,0
2018-02-01T18:16:51.368Z,0
2018-02-01T18:18:00.591Z,0
2018-02-01T18:19:09.555Z,0
2018-02-01T18:20:18.559Z,0
2018-02-01T18:21:27.565Z,0
2018-02-01T18:22:36.563Z,0
2018-02-01T18:23:45.418Z,0
2018-02-01T18:24:54.125Z,0
2018-02-01T18:26:03.338Z,0
2018-02-01T18:27:12.321Z,0
2018-02-01T18:28:21.298Z,0
2018-02-01T18:29:30.262Z,0
2018-02-01T18:30:39.268Z,0
2018-02-01T18:31:48.538Z,0
2018-02-01T18:32:57.523Z,0
2018-02-01T18:34:06.746Z,0
2018-02-01T18:35:15.696Z,0
2018-02-01T18:36:25.007Z,0
2018-02-01T18:37:34.601Z,0
2018-02-01T18:38:44.636Z,0
2018-02-01T18:39:53.328Z,0
2018-02-01T18:41:02.021Z,0
2018-02-01T18:42:11.009Z,0
2018-02-01T18:43:20.233Z,0
2018-02-01T18:44:29.186Z,0
2018-02-01T18:45:37.883Z,0
2018-02-01T18:46:46.875Z,0
2018-02-01T18:47:56.407Z,0
2018-02-01T18:49:05.333Z,0
2018-02-01T18:50:14.286Z,0
2018-02-01T18:51:23.526Z,0
2018-02-01T18:52:32.562Z,0
2018-02-01T18:53:41.293Z,0
2018-02-01T18:54:50.760Z,0
2018-02-01T18:56:00.113Z,0
2018-02-01T18:57:08.835Z,0
2018-02-01T18:58:17.787Z,0
2018-02-01T18:59:26.770Z,0
2018-02-01T19:00:35.985Z,0
2018-02-01T19:01:45.220Z,0
2018-02-01T19:02:54.168Z,0
2018-02-01T19:04:03.402Z,0
2018-02-01T19:05:12.611Z,0
2018-02-01T19:06:21.563Z,0
2018-02-01T19:07:30.566Z,0
2018-02-01T19:08:39.787Z,0
2018-02-01T19:09:49.007Z,0
2018-02-01T19:10:57.958Z,0
2018-02-01T19:12:06.927Z,0
2018-02-01T19:13:16.676Z,0
2018-02-01T19:14:25.644Z,0
2018-02-01T19:15:34.355Z,0
2018-02-01T19:16:43.354Z,0
2018-02-01T19:17:52.580Z,0
2018-02-01T19:19:01.524Z,0
2018-02-01T19:20:10.209Z,0
2018-02-01T19:21:19.440Z,0
2018-02-01T19:22:29.178Z,0
2018-02-01T19:23:38.413Z,0
2018-02-01T19:24:47.652Z,0
2018-02-01T19:25:56.352Z,0
2018-02-01T19:27:05.327Z,0
2018-02-01T19:28:14.544Z,0
2018-02-01T19:29:23.797Z,0
2018-02-01T19:30:32.767Z,0
2018-02-01T19:31:42.053Z,0
2018-02-01T19:32:50.771Z,0
2018-02-01T19:34:00.065Z,0
2018-02-01T19:35:09.041Z,0
2018-02-01T19:36:17.995Z,0
2018-02-01T19:37:27.251Z,0
2018-02-01T19:38:35.945Z,0
2018-02-01T19:39:44.902Z,0
2018-02-01T19:40:53.628Z,0
2018-02-01T19:42:02.574Z,0
2018-02-01T19:43:11.264Z,0
2018-02-01T19:44:20.472Z,0
2018-02-01T19:45:29.202Z,0
2018-02-01T19:46:38.434Z,0
2018-02-01T19:47:47.401Z,0
2018-02-01T19:48:56.632Z,0
2018-02-01T19:50:05.602Z,0
2018-02-01T19:51:14.563Z,0
2018-02-01T19:52:23.267Z,0
2018-02-01T19:53:32.260Z,0
2018-02-01T19:54:41.771Z,0
2018-02-01T19:55:50.988Z,0
2018-02-01T19:57:00.464Z,0
2018-02-01T19:58:09.937Z,0
2018-02-01T19:59:19.397Z,0
2018-02-01T20:00:28.619Z,0
2018-02-01T20:01:37.586Z,0
2018-02-01T20:02:46.273Z,0
2018-02-01T20:03:55.225Z,0
2018-02-01T20:05:04.437Z,0
2018-02-01T20:06:13.389Z,0
2018-02-01T20:07:22.348Z,0
2018-02-01T20:08:31.553Z,0
2018-02-01T20:09:40.507Z,0
2018-02-01T20:10:49.468Z,0
2018-02-01T20:11:58.423Z,0
2018-02-01T20:13:07.645Z,0
2018-02-01T20:14:16.862Z,0
2018-02-01T20:15:26.340Z,0
2018-02-01T20:16:35.579Z,0
2018-02-01T20:17:44.846Z,0
2018-02-01T20:18:53.525Z,0
2018-02-01T20:20:02.472Z,0
2018-02-01T20:21:11.164Z,0
2018-02-01T20:22:20.652Z,0
2018-02-01T20:23:29.597Z,0
2018-02-01T20:24:38.813Z,0
2018-02-01T20:25:48.023Z,0
2018-02-01T20:26:56.992Z,0
2018-02-01T20:28:06.212Z,0
2018-02-01T20:29:15.170Z,0
2018-02-01T20:30:24.391Z,0
2018-02-01T20:31:33.879Z,0
2018-02-01T20:32:43.413Z,0
2018-02-01T20:33:52.370Z,0
2018-02-01T20:35:01.593Z,0
2018-02-01T20:36:10.292Z,0
2018-02-01T20:37:19.796Z,0
2018-02-01T20:38:28.815Z,0
2018-02-01T20:39:37.780Z,0
2018-02-01T20:40:46.736Z,0
2018-02-01T20:41:55.436Z,0
2018-02-01T20:43:04.650Z,0
2018-02-01T20:44:13.684Z,0
2018-02-01T20:45:22.643Z,0
2018-02-01T20:46:31.861Z,0
2018-02-01T20:47:41.070Z,0
2018-02-01T20:48:50.286Z,0
2018-02-01T20:49:59.266Z,0
2018-02-01T20:51:08.225Z,0
2018-02-01T20:52:17.172Z,0
2018-02-01T20:53:26.127Z,0
2018-02-01T20:54:35.114Z,0
2018-02-01T20:55:44.357Z,0
2018-02-01T20:56:53.590Z,0
2018-02-01T20:58:02.281Z,0
2018-02-01T20:59:11.231Z,0
2018-02-01T21:00:19.916Z,0
2018-02-01T21:01:29.429Z,0
2018-02-01T21:02:38.120Z,0
2018-02-01T21:03:47.350Z,0
2018-02-01T21:04:56.038Z,0
2018-02-01T21:06:05.008Z,0
2018-02-01T21:07:13.714Z,0
2018-02-01T21:08:22.929Z,0
2018-02-01T21:09:31.900Z,0
2018-02-01T21:10:41.116Z,0
2018-02-01T21:11:50.355Z,0
2018-02-01T21:13:00.081Z,0
2018-02-01T21:14:09.071Z,0
2018-02-01T21:15:18.310Z,0
2018-02-01T21:16:27.798Z,0
2018-02-01T21:17:37.278Z,0
2018-02-01T21:18:45.983Z,0
2018-02-01T21:19:54.941Z,0
2018-02-01T21:21:03.911Z,0
2018-02-01T21:22:12.601Z,0
2018-02-01T21:23:21.570Z,0
2018-02-01T21:24:30.527Z,0
2018-02-01T21:25:39.804Z,0
2018-02-01T21:26:48.749Z,0
2018-02-01T21:27:57.974Z,0
2018-02-01T21:29:06.933Z,0
2018-02-01T21:30:16.459Z,0
2018-02-01T21:31:25.452Z,0
2018-02-01T21:32:34.729Z,0
2018-02-01T21:33:43.956Z,0
2018-02-01T21:34:53.167Z,0
2018-02-01T21:36:01.866Z,0
2018-02-01T21:37:10.820Z,0
2018-02-01T21:38:19.509Z,0
2018-02-01T21:39:28.769Z,0
2018-02-01T21:40:37.501Z,0
2018-02-01T21:41:46.209Z,0
2018-02-01T21:42:55.420Z,0
2018-02-01T21:44:04.392Z,0
2018-02-01T21:45:13.623Z,0
2018-02-01T21:46:22.557Z,0
2018-02-01T21:47:32.036Z,0
2018-02-01T21:48:40.996Z,0
2018-02-01T21:49:50.226Z,0
2018-02-01T21:50:59.449Z,0
2018-02-01T21:52:08.684Z,0
2018-02-01T21:53:17.674Z,0
2018-02-01T21:54:26.636Z,0
2018-02-01T21:55:35.329Z,0
2018-02-01T21:56:44.799Z,0
2018-02-01T21:57:53.492Z,0
2018-02-01T21:59:02.704Z,0
2018-02-01T22:00:11.930Z,0
2018-02-01T22:01:20.953Z,0
2018-02-01T22:02:30.191Z,0
2018-02-01T22:03:39.163Z,0
2018-02-01T22:04:48.117Z,0
2018-02-01T22:05:57.369Z,0
2018-02-01T22:07:06.602Z,0
2018-02-01T22:08:15.291Z,0
2018-02-01T22:09:23.992Z,0
2018-02-01T22:10:33.212Z,0
2018-02-01T22:11:42.711Z,0
2018-02-01T22:12:51.658Z,0
2018-02-01T22:14:00.620Z,0
2018-02-01T22:15:09.577Z,0
2018-02-01T22:16:19.079Z,0
2018-02-01T22:17:28.345Z,0
2018-02-01T22:18:37.055Z,0
2018-02-01T22:19:46.280Z,0
2018-02-01T22:20:55.506Z,0
2018-02-01T22:22:04.225Z,0
2018-02-01T22:23:13.445Z,0
2018-02-01T22:24:22.654Z,0
2018-02-01T22:25:31.621Z,0
2018-02-01T22:26:40.868Z,0
2018-02-01T22:27:49.861Z,0
2018-02-01T22:28:58.816Z,0
2018-02-01T22:30:08.035Z,0
2018-02-01T22:31:17.271Z,0
2018-02-01T22:32:25.996Z,0
2018-02-01T22:33:35.495Z,0
2018-02-01T22:34:44.979Z,0
2018-02-01T22:35:53.967Z,0
2018-02-01T22:37:03.690Z,0
2018-02-01T22:38:12.681Z,0
2018-02-01T22:39:21.647Z,0
2018-02-01T22:40:32.119Z,0
2018-02-01T22:41:41.168Z,0
2018-02-01T22:42:51.456Z,0
2018-02-01T22:44:00.573Z,0
2018-02-01T22:45:09.278Z,0
2018-02-01T22:46:18.554Z,0
2018-02-01T22:47:27.603Z,0
2018-02-01T22:48:36.589Z,0
2018-02-01T22:49:45.548Z,0
2018-02-01T22:50:54.824Z,0
2018-02-01T22:52:03.588Z,0
2018-02-01T22:53:13.674Z,0
2018-02-01T22:54:22.370Z,0
2018-02-01T22:55:32.413Z,0
2018-02-01T22:56:41.943Z,0
2018-02-01T22:57:51.164Z,0
2018-02-01T22:59:00.162Z,0
2018-02-01T23:00:09.475Z,0
2018-02-01T23:01:18.938Z,0
2018-02-01T23:03:44.763Z,0
2018-02-01T23:04:53.685Z,0
2018-02-01T23:06:02.384Z,0
2018-02-01T23:07:11.612Z,0
2018-02-01T23:08:20.278Z,0
2018-02-01T23:09:28.937Z,0
2018-02-01T23:10:38.364Z,0
2018-02-01T23:11:47.336Z,0
2018-02-01T23:12:56.783Z,0
2018-02-01T23:14:05.449Z,0
2018-02-01T23:15:14.620Z,0
2018-02-01T23:16:23.540Z,0
2018-02-01T23:17:32.504Z,0
2018-02-01T23:18:42.811Z,0
2018-02-01T23:19:52.001Z,0
2018-02-01T23:21:00.662Z,0
2018-02-01T23:22:09.336Z,0
2018-02-01T23:23:18.308Z,0
2018-02-01T23:24:27.325Z,0
2018-02-01T23:25:36.504Z,0
2018-02-01T23:26:45.160Z,0
2018-02-01T23:27:54.075Z,0